createdAt,value
2019-01-30T00:03:05.714Z,-6.64
2019-01-30T00:08:09.004Z,-6.56
2019-01-30T00:13:12.278Z,-6.69
2019-01-30T00:18:15.474Z,-6.81
2019-01-30T00:23:18.797Z,-6.88
2019-01-30T00:28:22.018Z,-6.87
2019-01-30T00:33:25.263Z,-6.81
2019-01-30T00:38:28.567Z,-6.81
2019-01-30T00:43:31.880Z,-6.91
2019-01-30T00:48:35.269Z,-6.97
2019-01-30T00:53:38.482Z,-6.97
2019-01-30T00:58:41.678Z,-7.06
2019-01-30T01:03:44.862Z,-7.09
2019-01-30T01:08:48.146Z,-7.21
2019-01-30T01:13:51.363Z,-7.17
2019-01-30T01:18:54.566Z,-7.22
2019-01-30T01:23:57.760Z,-7.30
2019-01-30T01:29:00.940Z,-7.19
2019-01-30T01:34:04.273Z,-7.17
2019-01-30T01:39:08.659Z,-7.18
2019-01-30T01:44:11.894Z,-7.24
2019-01-30T01:49:15.089Z,-7.28
2019-01-30T01:54:18.292Z,-7.29
2019-01-30T01:59:21.564Z,-7.35
2019-01-30T02:04:24.805Z,-7.41
2019-01-30T02:09:28.114Z,-7.49
2019-01-30T02:14:31.302Z,-7.50
2019-01-30T02:19:34.516Z,-7.60
2019-01-30T02:24:37.785Z,-7.66
2019-01-30T02:29:41.042Z,-7.67
2019-01-30T02:34:44.273Z,-7.59
2019-01-30T02:39:47.653Z,-7.79
2019-01-30T02:44:50.870Z,-7.81
2019-01-30T02:49:54.186Z,-7.69
2019-01-30T02:54:57.365Z,-7.72
2019-01-30T03:00:00.545Z,-7.71
2019-01-30T03:05:03.992Z,-8.05
2019-01-30T03:10:09.652Z,-8.16
2019-01-30T03:15:13.087Z,-7.91
2019-01-30T03:20:18.954Z,-8.13
2019-01-30T03:25:23.080Z,-8.29
2019-01-30T03:30:27.946Z,-8.20
2019-01-30T03:35:31.171Z,-8.29
2019-01-30T03:40:34.358Z,-8.41
2019-01-30T03:45:37.644Z,-8.42
2019-01-30T03:50:40.833Z,-8.40
2019-01-30T03:55:44.028Z,-8.27
2019-01-30T04:00:47.249Z,-8.24
2019-01-30T04:05:50.512Z,-8.32
2019-01-30T04:10:53.718Z,-8.50
2019-01-30T04:15:56.974Z,-8.57
2019-01-30T04:21:00.160Z,-8.64
2019-01-30T04:26:03.475Z,-8.56
2019-01-30T04:31:06.709Z,-8.30
2019-01-30T04:36:09.903Z,-8.32
2019-01-30T04:41:13.235Z,-8.27
2019-01-30T04:46:16.602Z,-8.30
2019-01-30T04:51:19.742Z,-8.44
2019-01-30T04:56:22.965Z,-8.61
2019-01-30T05:01:26.173Z,-8.72
2019-01-30T05:06:29.860Z,-8.68
2019-01-30T05:11:33.050Z,-8.66
2019-01-30T05:16:36.236Z,-8.73
2019-01-30T05:21:39.457Z,-8.78
2019-01-30T05:26:42.700Z,-8.93
2019-01-30T05:31:45.971Z,-8.88
2019-01-30T05:36:49.233Z,-8.77
2019-01-30T05:41:52.437Z,-8.71
2019-01-30T05:46:55.636Z,-8.58
2019-01-30T05:51:58.853Z,-8.57
2019-01-30T05:57:02.075Z,-8.69
2019-01-30T06:02:11.789Z,-8.74
2019-01-30T06:07:08.611Z,-8.77
2019-01-30T06:12:11.806Z,-8.93
2019-01-30T06:17:15.082Z,-9.02
2019-01-30T06:22:18.339Z,-8.99
2019-01-30T06:27:21.514Z,-8.98
2019-01-30T06:32:24.751Z,-8.89
2019-01-30T06:37:27.947Z,-9.16
2019-01-30T06:42:31.194Z,-8.97
2019-01-30T06:47:34.474Z,-8.81
2019-01-30T06:52:37.675Z,-8.91
2019-01-30T06:57:40.895Z,-9.04
2019-01-30T07:02:44.215Z,-9.01
2019-01-30T07:07:47.508Z,-8.85
2019-01-30T07:12:50.882Z,-8.93
2019-01-30T07:17:54.086Z,-9.01
2019-01-30T07:22:57.291Z,-8.98
2019-01-30T07:28:00.499Z,-8.93
2019-01-30T07:33:03.743Z,-8.84
2019-01-30T07:38:06.942Z,-8.59
2019-01-30T07:43:10.155Z,-8.48
2019-01-30T07:48:13.357Z,-8.32
2019-01-30T07:53:16.576Z,-8.21
2019-01-30T07:58:19.803Z,-7.93
2019-01-30T08:03:23.066Z,-7.62
2019-01-30T08:08:26.265Z,-7.48
2019-01-30T08:13:29.474Z,-7.34
2019-01-30T08:18:32.670Z,-6.98
2019-01-30T08:23:36.222Z,-6.68
2019-01-30T08:28:39.261Z,-6.42
2019-01-30T08:33:42.508Z,-6.12
2019-01-30T08:38:45.843Z,-5.85
2019-01-30T08:43:49.157Z,-5.86
2019-01-30T08:48:52.409Z,-5.59
2019-01-30T08:53:55.767Z,-5.41
2019-01-30T08:58:59.038Z,-5.32
2019-01-30T09:04:02.403Z,-5.32
2019-01-30T09:09:08.972Z,-5.31
2019-01-30T09:14:12.504Z,-5.04
2019-01-30T09:19:15.771Z,-4.72
2019-01-30T09:24:19.030Z,-4.55
2019-01-30T09:29:22.299Z,-4.38
2019-01-30T09:34:25.571Z,-3.99
2019-01-30T09:39:28.898Z,-3.93
2019-01-30T09:44:32.405Z,-3.87
2019-01-30T09:49:35.506Z,-3.91
2019-01-30T09:54:38.914Z,-3.76
2019-01-30T09:59:42.237Z,-3.60
2019-01-30T10:04:45.550Z,-3.92
2019-01-30T10:09:48.902Z,-3.42
2019-01-30T10:14:52.407Z,-3.03
2019-01-30T10:19:55.670Z,-3.48
2019-01-30T10:24:58.982Z,-3.05
2019-01-30T10:30:02.330Z,-3.03
2019-01-30T10:35:05.659Z,-2.82
2019-01-30T10:40:11.593Z,-2.28
2019-01-30T10:45:15.024Z,-2.17
2019-01-30T10:50:20.694Z,-2.55
2019-01-30T10:55:25.451Z,-2.67
2019-01-30T11:00:32.240Z,-2.23
2019-01-30T11:05:35.502Z,-2.48
2019-01-30T11:10:38.731Z,-2.17
2019-01-30T11:15:42.112Z,-2.16
2019-01-30T11:20:45.442Z,-2.06
2019-01-30T11:25:49.443Z,-1.39
2019-01-30T11:30:52.928Z,-2.00
2019-01-30T11:36:00.340Z,-1.23
2019-01-30T11:41:03.774Z,-1.20
2019-01-30T11:46:07.173Z,-1.08
2019-01-30T11:51:10.622Z,-1.01
2019-01-30T11:56:13.833Z,-0.54
2019-01-30T12:01:17.103Z,-0.82
2019-01-30T12:06:20.390Z,-0.87
2019-01-30T12:11:23.738Z,-0.58
2019-01-30T12:16:28.357Z,-0.40
2019-01-30T12:21:31.584Z,-0.55
2019-01-30T12:26:34.787Z,-0.29
2019-01-30T12:31:38.178Z,-0.27
2019-01-30T12:36:41.410Z,-0.22
2019-01-30T12:41:44.701Z,0.08
2019-01-30T12:46:47.992Z,0.23
2019-01-30T12:51:51.337Z,0.71
2019-01-30T12:56:54.631Z,0.71
2019-01-30T13:01:57.886Z,0.53
2019-01-30T13:07:04.029Z,0.63
2019-01-30T13:12:07.246Z,0.52
2019-01-30T13:17:10.503Z,0.46
2019-01-30T13:22:14.046Z,0.47
2019-01-30T13:27:17.380Z,0.56
2019-01-30T13:32:20.957Z,0.57
2019-01-30T13:37:24.295Z,0.58
2019-01-30T13:42:27.635Z,0.86
2019-01-30T13:47:32.738Z,0.93
2019-01-30T13:52:34.522Z,1.00
2019-01-30T13:57:37.990Z,0.79
2019-01-30T14:02:41.346Z,0.96
2019-01-30T14:07:44.644Z,1.02
2019-01-30T14:12:47.977Z,1.21
2019-01-30T14:17:51.410Z,1.41
2019-01-30T14:22:54.781Z,1.42
2019-01-30T14:27:58.104Z,1.69
2019-01-30T14:33:01.479Z,1.50
2019-01-30T14:38:04.844Z,1.12
2019-01-30T14:43:08.208Z,0.95
2019-01-30T14:48:11.686Z,0.92
2019-01-30T14:53:15.076Z,0.88
2019-01-30T14:58:18.487Z,0.82
2019-01-30T15:03:21.867Z,0.76
2019-01-30T15:08:25.550Z,0.72
2019-01-30T15:13:28.956Z,0.64
2019-01-30T15:18:32.306Z,0.66
2019-01-30T15:23:35.708Z,0.66
2019-01-30T15:28:39.122Z,0.59
2019-01-30T15:33:42.486Z,0.58
2019-01-30T15:38:45.779Z,0.57
2019-01-30T15:43:49.161Z,0.50
2019-01-30T15:48:52.604Z,0.48
2019-01-30T15:53:55.911Z,0.38
2019-01-30T15:58:59.246Z,0.25
2019-01-30T16:04:05.940Z,0.26
2019-01-30T16:09:08.025Z,0.25
2019-01-30T16:14:12.683Z,0.17
2019-01-30T16:19:16.066Z,0.14
2019-01-30T16:24:19.366Z,0.10
2019-01-30T16:29:22.775Z,0.04
2019-01-30T16:34:26.082Z,0.06
2019-01-30T16:39:29.410Z,0.07
2019-01-30T16:44:32.827Z,0.02
2019-01-30T16:49:36.208Z,-0.07
2019-01-30T16:54:39.578Z,-0.09
2019-01-30T16:59:42.886Z,-0.14
2019-01-30T17:04:46.245Z,-0.22
2019-01-30T17:09:49.566Z,-0.19
2019-01-30T17:14:52.874Z,-0.22
2019-01-30T17:19:56.175Z,-0.24
2019-01-30T17:24:59.489Z,-0.27
2019-01-30T17:30:02.892Z,-0.27
2019-01-30T17:35:06.278Z,-0.29
2019-01-30T17:40:13.098Z,-0.29
2019-01-30T17:45:16.563Z,-0.31
2019-01-30T17:50:21.685Z,-0.32
2019-01-30T17:55:26.206Z,-0.32
2019-01-30T18:00:33.246Z,-0.33
2019-01-30T18:05:36.566Z,-0.34
2019-01-30T18:10:39.902Z,-0.30
2019-01-30T18:15:43.337Z,-0.23
2019-01-30T18:20:46.722Z,-0.07
2019-01-30T18:25:50.139Z,-0.02
2019-01-30T18:30:53.566Z,-0.04
2019-01-30T18:35:59.238Z,0.02
2019-01-30T18:41:02.621Z,0.01
2019-01-30T18:46:06.030Z,-0.01
2019-01-30T18:51:09.470Z,-0.03
2019-01-30T18:56:12.842Z,0.01
2019-01-30T19:01:19.279Z,0.02
2019-01-30T19:06:22.639Z,0.11
2019-01-30T19:11:26.965Z,0.05
2019-01-30T19:16:30.274Z,0.10
2019-01-30T19:21:34.238Z,0.06
2019-01-30T19:26:38.650Z,-0.02
2019-01-30T19:31:42.062Z,-0.02
2019-01-30T19:36:45.482Z,-0.05
2019-01-30T19:41:50.362Z,-0.06
2019-01-30T19:46:52.278Z,-0.07
2019-01-30T19:51:55.687Z,-0.09
2019-01-30T19:56:59.094Z,-0.06
2019-01-30T20:02:02.415Z,-0.02
2019-01-30T20:07:14.454Z,0.09
2019-01-30T20:12:09.226Z,0.10
2019-01-30T20:17:12.557Z,0.06
2019-01-30T20:22:15.951Z,0.08
2019-01-30T20:27:19.977Z,0.07
2019-01-30T20:32:23.283Z,0.16
2019-01-30T20:37:26.673Z,0.11
2019-01-30T20:42:29.972Z,0.09
2019-01-30T20:47:33.262Z,0.04
2019-01-30T20:52:36.609Z,0.08
2019-01-30T20:57:42.773Z,0.09
2019-01-30T21:02:46.110Z,0.05
2019-01-30T21:07:49.503Z,-0.03
2019-01-30T21:12:52.804Z,-0.03
2019-01-30T21:17:56.162Z,0.08
2019-01-30T21:22:59.532Z,0.20
2019-01-30T21:28:02.980Z,0.17
2019-01-30T21:33:06.354Z,0.28
2019-01-30T21:38:09.791Z,0.32
2019-01-30T21:43:13.157Z,0.29
2019-01-30T21:48:16.555Z,0.18
2019-01-30T21:53:19.866Z,0.11
2019-01-30T21:58:23.205Z,0.12
2019-01-30T22:03:26.466Z,0.04
2019-01-30T22:08:29.791Z,0.07
2019-01-30T22:13:33.070Z,-0.01
2019-01-30T22:18:36.364Z,-0.04
2019-01-30T22:23:39.672Z,-0.08
2019-01-30T22:28:42.979Z,-0.04
2019-01-30T22:33:46.254Z,-0.08
2019-01-30T22:38:49.461Z,-0.02
2019-01-30T22:43:52.671Z,-0.09
2019-01-30T22:48:55.865Z,-0.17
2019-01-30T22:53:59.097Z,-0.18
2019-01-30T22:59:02.306Z,-0.17
2019-01-30T23:04:13.863Z,-0.22
2019-01-30T23:10:38.802Z,-0.30
2019-01-30T23:15:50.401Z,-0.39
2019-01-30T23:20:57.645Z,-0.35
2019-01-30T23:26:07.755Z,-0.53
2019-01-30T23:31:19.734Z,-0.58
2019-01-30T23:38:38.221Z,-0.71
2019-01-30T23:44:02.011Z,-1.04
2019-01-30T23:49:16.226Z,-1.32
2019-01-30T23:54:31.551Z,-1.54
2019-01-30T23:59:57.449Z,-1.73
